sensor_id;sensor_type;location;lat;lon;timestamp;temperature;humidity
5118;DHT22;2578;51.622;7.046;2022-08-03T00:02:25;18.30;99.90
5118;DHT22;2578;51.622;7.046;2022-08-03T00:04:50;18.20;99.90
5118;DHT22;2578;51.622;7.046;2022-08-03T00:07:16;18.20;99.90
5118;DHT22;2578;51.622;7.046;2022-08-03T00:09:42;18.20;99.90
5118;DHT22;2578;51.622;7.046;2022-08-03T00:12:07;18.10;99.90
5118;DHT22;2578;51.622;7.046;2022-08-03T00:14:33;18.00;99.90
5118;DHT22;2578;51.622;7.046;2022-08-03T00:16:59;18.00;99.90
5118;DHT22;2578;51.622;7.046;2022-08-03T00:19:25;17.90;99.90
5118;DHT22;2578;51.622;7.046;2022-08-03T00:21:50;17.90;99.90
5118;DHT22;2578;51.622;7.046;2022-08-03T00:24:16;17.90;99.90
5118;DHT22;2578;51.622;7.046;2022-08-03T00:26:42;17.90;99.90
5118;DHT22;2578;51.622;7.046;2022-08-03T00:29:07;17.90;99.90
5118;DHT22;2578;51.622;7.046;2022-08-03T00:31:33;17.80;99.90
5118;DHT22;2578;51.622;7.046;2022-08-03T00:33:59;17.70;99.90
5118;DHT22;2578;51.622;7.046;2022-08-03T00:36:25;17.70;99.90
5118;DHT22;2578;51.622;7.046;2022-08-03T00:38:50;17.70;99.90
5118;DHT22;2578;51.622;7.046;2022-08-03T00:41:16;17.50;99.90
5118;DHT22;2578;51.622;7.046;2022-08-03T00:43:41;17.40;99.90
5118;DHT22;2578;51.622;7.046;2022-08-03T00:46:07;17.30;99.90
5118;DHT22;2578;51.622;7.046;2022-08-03T00:48:32;17.30;99.90
5118;DHT22;2578;51.622;7.046;2022-08-03T00:50:58;17.20;99.90
5118;DHT22;2578;51.622;7.046;2022-08-03T00:53:24;17.10;99.90
5118;DHT22;2578;51.622;7.046;2022-08-03T00:55:51;17.10;99.90
5118;DHT22;2578;51.622;7.046;2022-08-03T00:58:17;17.10;99.90
5118;DHT22;2578;51.622;7.046;2022-08-03T01:00:42;17.10;99.90
5118;DHT22;2578;51.622;7.046;2022-08-03T01:03:09;17.10;99.90
5118;DHT22;2578;51.622;7.046;2022-08-03T01:05:54;17.10;99.90
5118;DHT22;2578;51.622;7.046;2022-08-03T01:11:23;17.10;99.90
5118;DHT22;2578;51.622;7.046;2022-08-03T01:25:13;17.10;99.90
5118;DHT22;2578;51.622;7.046;2022-08-03T01:27:56;17.10;99.90
5118;DHT22;2578;51.622;7.046;2022-08-03T01:30:31;17.10;99.90
5118;DHT22;2578;51.622;7.046;2022-08-03T01:33:03;17.10;99.90
5118;DHT22;2578;51.622;7.046;2022-08-03T01:35:57;17.10;99.90
5118;DHT22;2578;51.622;7.046;2022-08-03T01:38:27;17.10;99.90
5118;DHT22;2578;51.622;7.046;2022-08-03T01:40:55;17.10;99.90
5118;DHT22;2578;51.622;7.046;2022-08-03T01:43:25;17.10;99.90
5118;DHT22;2578;51.622;7.046;2022-08-03T01:45:55;17.10;99.90
5118;DHT22;2578;51.622;7.046;2022-08-03T01:48:22;17.10;99.90
5118;DHT22;2578;51.622;7.046;2022-08-03T01:50:50;17.00;99.90
5118;DHT22;2578;51.622;7.046;2022-08-03T01:53:16;17.00;99.90
5118;DHT22;2578;51.622;7.046;2022-08-03T01:55:47;17.00;99.90
5118;DHT22;2578;51.622;7.046;2022-08-03T01:58:15;16.90;99.90
5118;DHT22;2578;51.622;7.046;2022-08-03T02:00:42;16.90;99.90
5118;DHT22;2578;51.622;7.046;2022-08-03T02:03:09;16.90;99.90
5118;DHT22;2578;51.622;7.046;2022-08-03T02:05:38;16.80;99.90
5118;DHT22;2578;51.622;7.046;2022-08-03T02:08:06;16.80;99.90
5118;DHT22;2578;51.622;7.046;2022-08-03T02:10:32;16.80;99.90
5118;DHT22;2578;51.622;7.046;2022-08-03T02:13:00;16.80;99.90
5118;DHT22;2578;51.622;7.046;2022-08-03T02:15:27;16.80;99.90
5118;DHT22;2578;51.622;7.046;2022-08-03T02:17:56;16.80;99.90
5118;DHT22;2578;51.622;7.046;2022-08-03T02:20:23;16.80;99.90
5118;DHT22;2578;51.622;7.046;2022-08-03T02:22:49;16.80;99.90
5118;DHT22;2578;51.622;7.046;2022-08-03T02:25:15;16.80;99.90
5118;DHT22;2578;51.622;7.046;2022-08-03T02:27:50;16.80;99.90
5118;DHT22;2578;51.622;7.046;2022-08-03T02:30:17;16.80;99.90
5118;DHT22;2578;51.622;7.046;2022-08-03T02:32:53;16.80;99.90
5118;DHT22;2578;51.622;7.046;2022-08-03T02:35:22;16.80;99.90
5118;DHT22;2578;51.622;7.046;2022-08-03T02:37:52;16.80;99.90
5118;DHT22;2578;51.622;7.046;2022-08-03T02:40:20;16.70;99.90
5118;DHT22;2578;51.622;7.046;2022-08-03T02:42:47;16.60;99.90
5118;DHT22;2578;51.622;7.046;2022-08-03T02:45:15;16.60;99.90
5118;DHT22;2578;51.622;7.046;2022-08-03T02:47:43;16.60;99.90
5118;DHT22;2578;51.622;7.046;2022-08-03T02:50:13;16.50;99.90
5118;DHT22;2578;51.622;7.046;2022-08-03T02:52:40;16.60;99.90
5118;DHT22;2578;51.622;7.046;2022-08-03T02:55:09;16.60;99.90
5118;DHT22;2578;51.622;7.046;2022-08-03T02:57:36;16.60;99.90
5118;DHT22;2578;51.622;7.046;2022-08-03T03:00:04;16.70;99.90
5118;DHT22;2578;51.622;7.046;2022-08-03T03:02:31;16.60;99.90
5118;DHT22;2578;51.622;7.046;2022-08-03T03:04:58;16.60;99.90
5118;DHT22;2578;51.622;7.046;2022-08-03T03:07:26;16.60;99.90
5118;DHT22;2578;51.622;7.046;2022-08-03T03:09:52;16.60;99.90
5118;DHT22;2578;51.622;7.046;2022-08-03T03:12:18;16.50;99.90
5118;DHT22;2578;51.622;7.046;2022-08-03T03:14:45;16.50;99.90
5118;DHT22;2578;51.622;7.046;2022-08-03T03:17:13;16.50;99.90
5118;DHT22;2578;51.622;7.046;2022-08-03T03:19:40;16.40;99.90
5118;DHT22;2578;51.622;7.046;2022-08-03T03:22:07;16.40;99.90
5118;DHT22;2578;51.622;7.046;2022-08-03T03:24:35;16.30;99.90
5118;DHT22;2578;51.622;7.046;2022-08-03T03:27:01;16.30;99.90
5118;DHT22;2578;51.622;7.046;2022-08-03T03:29:27;16.30;99.90
5118;DHT22;2578;51.622;7.046;2022-08-03T03:31:54;16.30;99.90
5118;DHT22;2578;51.622;7.046;2022-08-03T03:34:19;16.40;99.90
5118;DHT22;2578;51.622;7.046;2022-08-03T03:36:45;16.40;99.90
5118;DHT22;2578;51.622;7.046;2022-08-03T03:39:11;16.40;99.90
5118;DHT22;2578;51.622;7.046;2022-08-03T03:41:38;16.40;99.90
5118;DHT22;2578;51.622;7.046;2022-08-03T03:44:04;16.30;99.90
5118;DHT22;2578;51.622;7.046;2022-08-03T03:46:29;16.30;99.90
5118;DHT22;2578;51.622;7.046;2022-08-03T03:48:55;16.40;99.90
5118;DHT22;2578;51.622;7.046;2022-08-03T03:51:21;16.50;99.90
5118;DHT22;2578;51.622;7.046;2022-08-03T03:53:54;16.50;99.90
5118;DHT22;2578;51.622;7.046;2022-08-03T03:56:20;16.50;99.90
5118;DHT22;2578;51.622;7.046;2022-08-03T03:58:46;16.60;99.90
5118;DHT22;2578;51.622;7.046;2022-08-03T04:01:12;16.70;99.90
5118;DHT22;2578;51.622;7.046;2022-08-03T04:03:37;16.70;99.90
5118;DHT22;2578;51.622;7.046;2022-08-03T04:06:03;16.70;99.90
5118;DHT22;2578;51.622;7.046;2022-08-03T04:08:47;16.70;99.90
5118;DHT22;2578;51.622;7.046;2022-08-03T04:11:42;16.70;99.90
5118;DHT22;2578;51.622;7.046;2022-08-03T04:16:45;16.70;99.90
5118;DHT22;2578;51.622;7.046;2022-08-03T04:19:16;16.70;99.90
5118;DHT22;2578;51.622;7.046;2022-08-03T04:21:45;16.80;99.90
5118;DHT22;2578;51.622;7.046;2022-08-03T04:24:13;16.80;99.90
5118;DHT22;2578;51.622;7.046;2022-08-03T04:26:40;16.80;99.90
5118;DHT22;2578;51.622;7.046;2022-08-03T04:29:09;16.80;99.90
5118;DHT22;2578;51.622;7.046;2022-08-03T04:31:35;16.80;99.90
5118;DHT22;2578;51.622;7.046;2022-08-03T04:34:03;16.70;99.90
5118;DHT22;2578;51.622;7.046;2022-08-03T04:36:31;16.70;99.90
5118;DHT22;2578;51.622;7.046;2022-08-03T04:39:09;16.70;99.90
5118;DHT22;2578;51.622;7.046;2022-08-03T04:41:35;16.70;99.90
5118;DHT22;2578;51.622;7.046;2022-08-03T04:44:03;16.70;99.90
5118;DHT22;2578;51.622;7.046;2022-08-03T04:46:33;16.80;99.90
5118;DHT22;2578;51.622;7.046;2022-08-03T04:49:00;16.90;99.90
5118;DHT22;2578;51.622;7.046;2022-08-03T04:51:27;17.00;99.90
5118;DHT22;2578;51.622;7.046;2022-08-03T04:53:53;17.10;99.90
5118;DHT22;2578;51.622;7.046;2022-08-03T04:56:19;17.30;99.90
5118;DHT22;2578;51.622;7.046;2022-08-03T04:58:45;17.30;99.90
5118;DHT22;2578;51.622;7.046;2022-08-03T05:01:10;17.40;99.90
5118;DHT22;2578;51.622;7.046;2022-08-03T05:03:36;17.40;99.90
5118;DHT22;2578;51.622;7.046;2022-08-03T05:06:02;17.50;99.90
5118;DHT22;2578;51.622;7.046;2022-08-03T05:08:28;17.70;99.90
5118;DHT22;2578;51.622;7.046;2022-08-03T05:10:55;18.00;99.90
5118;DHT22;2578;51.622;7.046;2022-08-03T05:13:20;18.20;99.90
5118;DHT22;2578;51.622;7.046;2022-08-03T05:15:46;18.60;99.90
5118;DHT22;2578;51.622;7.046;2022-08-03T05:18:12;18.80;99.90
5118;DHT22;2578;51.622;7.046;2022-08-03T05:20:37;19.10;99.90
5118;DHT22;2578;51.622;7.046;2022-08-03T05:23:03;19.50;99.90
5118;DHT22;2578;51.622;7.046;2022-08-03T05:25:29;20.00;99.90
5118;DHT22;2578;51.622;7.046;2022-08-03T05:27:55;20.20;99.90
5118;DHT22;2578;51.622;7.046;2022-08-03T05:30:21;20.70;99.90
5118;DHT22;2578;51.622;7.046;2022-08-03T05:32:46;21.20;99.90
5118;DHT22;2578;51.622;7.046;2022-08-03T05:35:12;22.10;99.90
5118;DHT22;2578;51.622;7.046;2022-08-03T05:37:38;22.30;99.90
5118;DHT22;2578;51.622;7.046;2022-08-03T05:40:04;22.80;99.90
5118;DHT22;2578;51.622;7.046;2022-08-03T05:42:30;23.30;99.90
5118;DHT22;2578;51.622;7.046;2022-08-03T05:44:55;23.80;99.90
5118;DHT22;2578;51.622;7.046;2022-08-03T05:47:21;23.90;99.90
5118;DHT22;2578;51.622;7.046;2022-08-03T05:49:47;24.30;99.90
5118;DHT22;2578;51.622;7.046;2022-08-03T05:52:12;24.80;99.90
5118;DHT22;2578;51.622;7.046;2022-08-03T05:54:38;25.40;99.90
5118;DHT22;2578;51.622;7.046;2022-08-03T05:57:04;25.40;99.90
5118;DHT22;2578;51.622;7.046;2022-08-03T05:59:29;25.50;99.90
5118;DHT22;2578;51.622;7.046;2022-08-03T06:01:55;25.70;99.90
5118;DHT22;2578;51.622;7.046;2022-08-03T06:04:21;25.90;99.90
5118;DHT22;2578;51.622;7.046;2022-08-03T06:06:46;26.10;99.90
5118;DHT22;2578;51.622;7.046;2022-08-03T06:09:13;26.30;99.90
5118;DHT22;2578;51.622;7.046;2022-08-03T06:11:39;26.50;99.90
5118;DHT22;2578;51.622;7.046;2022-08-03T06:14:06;26.60;99.90
5118;DHT22;2578;51.622;7.046;2022-08-03T06:16:32;26.70;99.90
5118;DHT22;2578;51.622;7.046;2022-08-03T06:18:58;26.80;99.90
5118;DHT22;2578;51.622;7.046;2022-08-03T06:21:23;26.90;99.90
5118;DHT22;2578;51.622;7.046;2022-08-03T06:23:49;27.00;99.90
5118;DHT22;2578;51.622;7.046;2022-08-03T06:26:15;27.10;99.90
5118;DHT22;2578;51.622;7.046;2022-08-03T06:28:40;27.30;99.90
5118;DHT22;2578;51.622;7.046;2022-08-03T06:31:06;27.50;99.90
5118;DHT22;2578;51.622;7.046;2022-08-03T06:33:31;27.80;99.90
5118;DHT22;2578;51.622;7.046;2022-08-03T06:35:57;27.90;99.90
5118;DHT22;2578;51.622;7.046;2022-08-03T06:38:23;28.10;99.90
5118;DHT22;2578;51.622;7.046;2022-08-03T06:40:48;28.40;99.90
5118;DHT22;2578;51.622;7.046;2022-08-03T06:43:14;28.30;99.90
5118;DHT22;2578;51.622;7.046;2022-08-03T06:45:40;28.10;99.90
5118;DHT22;2578;51.622;7.046;2022-08-03T06:48:11;28.10;99.90
5118;DHT22;2578;51.622;7.046;2022-08-03T06:50:39;28.20;99.90
5118;DHT22;2578;51.622;7.046;2022-08-03T06:53:06;28.20;99.90
5118;DHT22;2578;51.622;7.046;2022-08-03T06:55:31;28.50;99.70
5118;DHT22;2578;51.622;7.046;2022-08-03T06:57:57;28.50;99.30
5118;DHT22;2578;51.622;7.046;2022-08-03T07:00:23;28.80;99.90
5118;DHT22;2578;51.622;7.046;2022-08-03T07:02:49;28.60;95.80
5118;DHT22;2578;51.622;7.046;2022-08-03T07:05:15;28.60;96.80
5118;DHT22;2578;51.622;7.046;2022-08-03T07:07:41;28.60;96.60
5118;DHT22;2578;51.622;7.046;2022-08-03T07:10:07;28.80;94.40
5118;DHT22;2578;51.622;7.046;2022-08-03T07:12:34;28.90;90.40
5118;DHT22;2578;51.622;7.046;2022-08-03T07:15:00;29.30;90.70
5118;DHT22;2578;51.622;7.046;2022-08-03T07:17:27;29.40;93.30
5118;DHT22;2578;51.622;7.046;2022-08-03T07:19:53;29.70;87.70
5118;DHT22;2578;51.622;7.046;2022-08-03T07:22:18;29.90;80.80
5118;DHT22;2578;51.622;7.046;2022-08-03T07:24:44;30.10;66.40
5118;DHT22;2578;51.622;7.046;2022-08-03T07:27:10;30.10;65.90
5118;DHT22;2578;51.622;7.046;2022-08-03T07:29:36;29.90;74.60
5118;DHT22;2578;51.622;7.046;2022-08-03T07:32:03;29.60;75.00
5118;DHT22;2578;51.622;7.046;2022-08-03T07:34:29;29.40;85.90
5118;DHT22;2578;51.622;7.046;2022-08-03T07:36:56;29.30;83.40
5118;DHT22;2578;51.622;7.046;2022-08-03T07:39:21;29.20;89.00
5118;DHT22;2578;51.622;7.046;2022-08-03T07:41:47;29.20;86.90
5118;DHT22;2578;51.622;7.046;2022-08-03T07:44:16;29.30;81.10
5118;DHT22;2578;51.622;7.046;2022-08-03T07:46:41;29.40;88.40
5118;DHT22;2578;51.622;7.046;2022-08-03T07:49:07;29.60;79.80
5118;DHT22;2578;51.622;7.046;2022-08-03T07:51:33;29.50;76.70
5118;DHT22;2578;51.622;7.046;2022-08-03T07:53:58;29.60;69.00
5118;DHT22;2578;51.622;7.046;2022-08-03T07:56:25;29.50;71.40
5118;DHT22;2578;51.622;7.046;2022-08-03T07:58:52;29.60;68.10
5118;DHT22;2578;51.622;7.046;2022-08-03T08:01:17;29.60;69.10
5118;DHT22;2578;51.622;7.046;2022-08-03T08:03:47;29.60;72.60
5118;DHT22;2578;51.622;7.046;2022-08-03T08:06:13;29.60;72.40
5118;DHT22;2578;51.622;7.046;2022-08-03T08:08:39;29.80;74.20
5118;DHT22;2578;51.622;7.046;2022-08-03T08:11:05;30.00;69.00
5118;DHT22;2578;51.622;7.046;2022-08-03T08:13:31;30.20;71.50
5118;DHT22;2578;51.622;7.046;2022-08-03T08:15:57;30.60;59.20
5118;DHT22;2578;51.622;7.046;2022-08-03T08:18:22;30.70;62.30
5118;DHT22;2578;51.622;7.046;2022-08-03T08:20:49;30.90;56.50
5118;DHT22;2578;51.622;7.046;2022-08-03T08:23:15;31.10;48.60
5118;DHT22;2578;51.622;7.046;2022-08-03T08:25:47;31.50;44.10
5118;DHT22;2578;51.622;7.046;2022-08-03T08:28:12;31.60;39.80
5118;DHT22;2578;51.622;7.046;2022-08-03T08:30:38;31.90;36.30
5118;DHT22;2578;51.622;7.046;2022-08-03T08:33:04;31.80;28.80
5118;DHT22;2578;51.622;7.046;2022-08-03T08:35:29;31.90;36.40
5118;DHT22;2578;51.622;7.046;2022-08-03T08:37:55;32.10;25.80
5118;DHT22;2578;51.622;7.046;2022-08-03T08:40:22;32.20;21.20
5118;DHT22;2578;51.622;7.046;2022-08-03T08:42:47;32.50;27.20
5118;DHT22;2578;51.622;7.046;2022-08-03T08:45:13;32.50;19.30
5118;DHT22;2578;51.622;7.046;2022-08-03T08:47:44;32.60;19.80
5118;DHT22;2578;51.622;7.046;2022-08-03T08:50:11;32.50;21.40
5118;DHT22;2578;51.622;7.046;2022-08-03T08:52:40;32.70;27.30
5118;DHT22;2578;51.622;7.046;2022-08-03T08:55:08;33.00;13.60
5118;DHT22;2578;51.622;7.046;2022-08-03T08:57:37;33.10;18.30
5118;DHT22;2578;51.622;7.046;2022-08-03T09:00:12;32.90;7.90
5118;DHT22;2578;51.622;7.046;2022-08-03T09:02:42;32.80;12.00
5118;DHT22;2578;51.622;7.046;2022-08-03T09:05:16;32.90;13.00
5118;DHT22;2578;51.622;7.046;2022-08-03T09:07:42;33.00;13.10
5118;DHT22;2578;51.622;7.046;2022-08-03T09:10:10;33.00;14.20
5118;DHT22;2578;51.622;7.046;2022-08-03T09:12:47;32.70;13.00
5118;DHT22;2578;51.622;7.046;2022-08-03T09:15:28;32.40;6.70
5118;DHT22;2578;51.622;7.046;2022-08-03T09:18:00;32.40;4.90
5118;DHT22;2578;51.622;7.046;2022-08-03T09:20:28;32.70;10.60
5118;DHT22;2578;51.622;7.046;2022-08-03T09:22:58;33.10;4.50
5118;DHT22;2578;51.622;7.046;2022-08-03T09:25:34;33.30;5.70
5118;DHT22;2578;51.622;7.046;2022-08-03T09:28:18;33.40;2.50
5118;DHT22;2578;51.622;7.046;2022-08-03T09:30:57;33.60;3.10
5118;DHT22;2578;51.622;7.046;2022-08-03T09:33:23;33.30;4.50
5118;DHT22;2578;51.622;7.046;2022-08-03T09:35:50;33.00;5.90
5118;DHT22;2578;51.622;7.046;2022-08-03T09:38:19;32.90;7.00
5118;DHT22;2578;51.622;7.046;2022-08-03T09:40:49;32.70;6.80
5118;DHT22;2578;51.622;7.046;2022-08-03T09:43:15;32.70;8.30
5118;DHT22;2578;51.622;7.046;2022-08-03T09:45:48;32.50;8.30
5118;DHT22;2578;51.622;7.046;2022-08-03T09:48:24;32.50;10.60
5118;DHT22;2578;51.622;7.046;2022-08-03T09:50:57;32.10;3.90
5118;DHT22;2578;51.622;7.046;2022-08-03T09:53:28;31.70;9.70
5118;DHT22;2578;51.622;7.046;2022-08-03T09:55:56;31.40;5.70
5118;DHT22;2578;51.622;7.046;2022-08-03T09:58:29;31.20;5.60
5118;DHT22;2578;51.622;7.046;2022-08-03T10:00:59;31.20;9.50
5118;DHT22;2578;51.622;7.046;2022-08-03T10:03:30;31.60;15.70
5118;DHT22;2578;51.622;7.046;2022-08-03T10:06:20;31.70;8.70
5118;DHT22;2578;51.622;7.046;2022-08-03T10:09:06;31.40;5.30
5118;DHT22;2578;51.622;7.046;2022-08-03T10:16:38;31.80;5.40
5118;DHT22;2578;51.622;7.046;2022-08-03T10:19:06;32.00;5.80
5118;DHT22;2578;51.622;7.046;2022-08-03T10:21:34;32.00;5.20
5118;DHT22;2578;51.622;7.046;2022-08-03T10:24:05;32.60;5.70
5118;DHT22;2578;51.622;7.046;2022-08-03T10:26:33;32.70;1.00
5118;DHT22;2578;51.622;7.046;2022-08-03T10:29:04;32.60;1.60
5118;DHT22;2578;51.622;7.046;2022-08-03T10:31:38;32.30;1.90
5118;DHT22;2578;51.622;7.046;2022-08-03T10:34:10;32.30;4.30
5118;DHT22;2578;51.622;7.046;2022-08-03T10:36:38;32.50;2.90
5118;DHT22;2578;51.622;7.046;2022-08-03T10:39:05;32.70;1.30
5118;DHT22;2578;51.622;7.046;2022-08-03T10:41:33;33.00;1.30
5118;DHT22;2578;51.622;7.046;2022-08-03T10:44:09;32.70;1.00
5118;DHT22;2578;51.622;7.046;2022-08-03T10:46:38;33.00;1.00
5118;DHT22;2578;51.622;7.046;2022-08-03T10:49:04;33.40;1.00
5118;DHT22;2578;51.622;7.046;2022-08-03T10:51:31;33.40;1.00
5118;DHT22;2578;51.622;7.046;2022-08-03T10:54:00;33.40;1.00
5118;DHT22;2578;51.622;7.046;2022-08-03T10:59:16;34.30;1.00
5118;DHT22;2578;51.622;7.046;2022-08-03T11:01:52;33.50;1.00
5118;DHT22;2578;51.622;7.046;2022-08-03T11:04:20;33.70;1.00
5118;DHT22;2578;51.622;7.046;2022-08-03T11:06:46;33.90;1.00
5118;DHT22;2578;51.622;7.046;2022-08-03T11:09:13;34.20;1.00
5118;DHT22;2578;51.622;7.046;2022-08-03T11:11:40;34.40;1.00
5118;DHT22;2578;51.622;7.046;2022-08-03T11:14:20;34.70;1.00
5118;DHT22;2578;51.622;7.046;2022-08-03T11:16:50;35.30;1.00
5118;DHT22;2578;51.622;7.046;2022-08-03T11:19:46;34.80;1.00
5118;DHT22;2578;51.622;7.046;2022-08-03T11:22:12;34.10;1.00
5118;DHT22;2578;51.622;7.046;2022-08-03T11:27:17;33.60;1.00
5118;DHT22;2578;51.622;7.046;2022-08-03T11:35:20;33.00;1.00
5118;DHT22;2578;51.622;7.046;2022-08-03T11:40:49;32.60;1.00
5118;DHT22;2578;51.622;7.046;2022-08-03T11:48:41;33.10;1.00
5118;DHT22;2578;51.622;7.046;2022-08-03T11:51:24;33.40;1.00
5118;DHT22;2578;51.622;7.046;2022-08-03T11:53:55;33.60;1.00
5118;DHT22;2578;51.622;7.046;2022-08-03T11:56:21;33.30;1.00
5118;DHT22;2578;51.622;7.046;2022-08-03T11:58:48;33.30;1.00
5118;DHT22;2578;51.622;7.046;2022-08-03T12:01:14;33.50;1.00
5118;DHT22;2578;51.622;7.046;2022-08-03T12:03:43;33.60;1.00
5118;DHT22;2578;51.622;7.046;2022-08-03T12:06:14;33.30;1.00
5118;DHT22;2578;51.622;7.046;2022-08-03T12:08:41;33.20;1.00
5118;DHT22;2578;51.622;7.046;2022-08-03T12:11:09;33.20;1.00
5118;DHT22;2578;51.622;7.046;2022-08-03T12:16:11;33.60;1.00
5118;DHT22;2578;51.622;7.046;2022-08-03T12:18:41;33.80;1.00
5118;DHT22;2578;51.622;7.046;2022-08-03T12:21:09;34.20;1.00
5118;DHT22;2578;51.622;7.046;2022-08-03T12:23:37;34.10;1.00
5118;DHT22;2578;51.622;7.046;2022-08-03T12:26:08;34.00;1.00
5118;DHT22;2578;51.622;7.046;2022-08-03T12:28:34;34.30;1.00
5118;DHT22;2578;51.622;7.046;2022-08-03T12:31:05;34.30;1.00
5118;DHT22;2578;51.622;7.046;2022-08-03T12:33:52;34.10;1.00
5118;DHT22;2578;51.622;7.046;2022-08-03T12:36:18;34.20;1.00
5118;DHT22;2578;51.622;7.046;2022-08-03T12:39:03;34.40;1.00
5118;DHT22;2578;51.622;7.046;2022-08-03T12:41:33;34.40;1.00
5118;DHT22;2578;51.622;7.046;2022-08-03T12:44:01;34.50;1.00
5118;DHT22;2578;51.622;7.046;2022-08-03T12:46:33;35.10;1.00
5118;DHT22;2578;51.622;7.046;2022-08-03T12:51:37;35.80;1.00
5118;DHT22;2578;51.622;7.046;2022-08-03T12:54:04;36.40;1.00
5118;DHT22;2578;51.622;7.046;2022-08-03T12:56:30;36.10;1.00
5118;DHT22;2578;51.622;7.046;2022-08-03T12:58:55;36.30;1.00
5118;DHT22;2578;51.622;7.046;2022-08-03T13:01:29;36.70;1.00
5118;DHT22;2578;51.622;7.046;2022-08-03T13:04:03;36.60;1.00
5118;DHT22;2578;51.622;7.046;2022-08-03T13:06:30;37.10;1.00
5118;DHT22;2578;51.622;7.046;2022-08-03T13:09:06;37.20;1.00
5118;DHT22;2578;51.622;7.046;2022-08-03T13:11:32;37.30;1.00
5118;DHT22;2578;51.622;7.046;2022-08-03T13:13:58;37.00;1.00
5118;DHT22;2578;51.622;7.046;2022-08-03T13:16:24;36.70;1.00
5118;DHT22;2578;51.622;7.046;2022-08-03T13:18:50;36.30;1.00
5118;DHT22;2578;51.622;7.046;2022-08-03T13:21:19;36.40;1.00
5118;DHT22;2578;51.622;7.046;2022-08-03T13:23:45;36.80;1.00
5118;DHT22;2578;51.622;7.046;2022-08-03T13:26:11;36.80;1.00
5118;DHT22;2578;51.622;7.046;2022-08-03T13:28:37;36.60;1.00
5118;DHT22;2578;51.622;7.046;2022-08-03T13:31:03;36.10;1.00
5118;DHT22;2578;51.622;7.046;2022-08-03T13:33:29;35.20;1.00
5118;DHT22;2578;51.622;7.046;2022-08-03T13:35:55;35.20;1.00
5118;DHT22;2578;51.622;7.046;2022-08-03T13:38:20;35.20;1.00
5118;DHT22;2578;51.622;7.046;2022-08-03T13:40:46;35.60;1.00
5118;DHT22;2578;51.622;7.046;2022-08-03T13:43:12;35.20;1.00
5118;DHT22;2578;51.622;7.046;2022-08-03T13:45:38;35.20;1.00
5118;DHT22;2578;51.622;7.046;2022-08-03T13:48:04;35.40;1.00
5118;DHT22;2578;51.622;7.046;2022-08-03T13:50:30;35.30;1.00
5118;DHT22;2578;51.622;7.046;2022-08-03T13:52:56;35.40;1.00
5118;DHT22;2578;51.622;7.046;2022-08-03T13:55:22;35.70;1.00
5118;DHT22;2578;51.622;7.046;2022-08-03T13:57:48;35.90;1.00
5118;DHT22;2578;51.622;7.046;2022-08-03T14:00:15;35.80;1.00
5118;DHT22;2578;51.622;7.046;2022-08-03T14:02:41;35.40;1.00
5118;DHT22;2578;51.622;7.046;2022-08-03T14:05:07;35.30;1.00
5118;DHT22;2578;51.622;7.046;2022-08-03T14:09:59;34.90;1.00
5118;DHT22;2578;51.622;7.046;2022-08-03T14:12:26;34.80;1.00
5118;DHT22;2578;51.622;7.046;2022-08-03T14:14:52;35.40;1.00
5118;DHT22;2578;51.622;7.046;2022-08-03T14:17:18;35.50;1.00
5118;DHT22;2578;51.622;7.046;2022-08-03T14:19:43;35.60;1.00
5118;DHT22;2578;51.622;7.046;2022-08-03T14:22:09;35.50;1.00
5118;DHT22;2578;51.622;7.046;2022-08-03T14:24:34;35.30;1.00
5118;DHT22;2578;51.622;7.046;2022-08-03T14:27:00;35.30;1.00
5118;DHT22;2578;51.622;7.046;2022-08-03T14:29:25;35.50;1.00
5118;DHT22;2578;51.622;7.046;2022-08-03T14:31:51;35.40;1.00
5118;DHT22;2578;51.622;7.046;2022-08-03T14:34:17;34.90;1.00
5118;DHT22;2578;51.622;7.046;2022-08-03T14:36:42;34.80;1.00
5118;DHT22;2578;51.622;7.046;2022-08-03T14:39:08;34.70;1.00
5118;DHT22;2578;51.622;7.046;2022-08-03T14:41:33;34.50;1.00
5118;DHT22;2578;51.622;7.046;2022-08-03T14:43:59;34.60;1.00
5118;DHT22;2578;51.622;7.046;2022-08-03T14:46:25;34.70;1.00
5118;DHT22;2578;51.622;7.046;2022-08-03T14:48:50;34.80;1.00
5118;DHT22;2578;51.622;7.046;2022-08-03T14:51:16;34.90;1.00
5118;DHT22;2578;51.622;7.046;2022-08-03T14:53:41;35.40;1.00
5118;DHT22;2578;51.622;7.046;2022-08-03T14:56:07;35.90;1.00
5118;DHT22;2578;51.622;7.046;2022-08-03T14:58:33;36.10;1.00
5118;DHT22;2578;51.622;7.046;2022-08-03T15:00:58;36.30;1.00
5118;DHT22;2578;51.622;7.046;2022-08-03T15:03:24;36.30;1.00
5118;DHT22;2578;51.622;7.046;2022-08-03T15:05:51;35.50;1.00
5118;DHT22;2578;51.622;7.046;2022-08-03T15:08:17;35.50;1.00
5118;DHT22;2578;51.622;7.046;2022-08-03T15:10:43;35.20;1.00
5118;DHT22;2578;51.622;7.046;2022-08-03T15:13:08;34.80;1.00
5118;DHT22;2578;51.622;7.046;2022-08-03T15:15:34;34.70;1.00
5118;DHT22;2578;51.622;7.046;2022-08-03T15:18:00;34.70;1.00
5118;DHT22;2578;51.622;7.046;2022-08-03T15:20:25;34.60;1.00
5118;DHT22;2578;51.622;7.046;2022-08-03T15:22:51;34.70;1.00
5118;DHT22;2578;51.622;7.046;2022-08-03T15:25:16;34.50;1.00
5118;DHT22;2578;51.622;7.046;2022-08-03T15:27:42;34.50;1.00
5118;DHT22;2578;51.622;7.046;2022-08-03T15:30:08;34.20;1.00
5118;DHT22;2578;51.622;7.046;2022-08-03T15:32:35;34.10;1.00
5118;DHT22;2578;51.622;7.046;2022-08-03T15:35:00;34.00;1.00
5118;DHT22;2578;51.622;7.046;2022-08-03T15:37:26;34.00;1.00
5118;DHT22;2578;51.622;7.046;2022-08-03T15:39:52;34.00;1.00
5118;DHT22;2578;51.622;7.046;2022-08-03T15:42:17;34.00;1.00
5118;DHT22;2578;51.622;7.046;2022-08-03T15:44:43;33.80;1.00
5118;DHT22;2578;51.622;7.046;2022-08-03T15:47:09;33.80;1.00
5118;DHT22;2578;51.622;7.046;2022-08-03T15:49:34;33.60;1.00
5118;DHT22;2578;51.622;7.046;2022-08-03T15:52:00;33.70;1.00
5118;DHT22;2578;51.622;7.046;2022-08-03T15:56:52;33.20;1.00
5118;DHT22;2578;51.622;7.046;2022-08-03T15:59:17;32.90;1.00
5118;DHT22;2578;51.622;7.046;2022-08-03T16:01:45;32.60;1.00
5118;DHT22;2578;51.622;7.046;2022-08-03T16:04:11;32.50;1.00
5118;DHT22;2578;51.622;7.046;2022-08-03T16:06:37;32.50;1.00
5118;DHT22;2578;51.622;7.046;2022-08-03T16:09:04;32.50;1.00
5118;DHT22;2578;51.622;7.046;2022-08-03T16:11:31;32.50;1.00
5118;DHT22;2578;51.622;7.046;2022-08-03T16:13:56;32.60;1.00
5118;DHT22;2578;51.622;7.046;2022-08-03T16:16:22;32.70;1.00
5118;DHT22;2578;51.622;7.046;2022-08-03T16:18:47;32.80;1.00
5118;DHT22;2578;51.622;7.046;2022-08-03T16:21:13;32.90;1.00
5118;DHT22;2578;51.622;7.046;2022-08-03T16:23:39;33.00;1.00
5118;DHT22;2578;51.622;7.046;2022-08-03T16:26:05;33.10;1.00
5118;DHT22;2578;51.622;7.046;2022-08-03T16:28:31;33.30;1.00
5118;DHT22;2578;51.622;7.046;2022-08-03T16:30:58;33.30;1.00
5118;DHT22;2578;51.622;7.046;2022-08-03T16:33:24;33.20;1.00
5118;DHT22;2578;51.622;7.046;2022-08-03T16:35:50;33.20;1.00
5118;DHT22;2578;51.622;7.046;2022-08-03T16:38:16;33.20;1.00
5118;DHT22;2578;51.622;7.046;2022-08-03T16:40:41;33.20;1.00
5118;DHT22;2578;51.622;7.046;2022-08-03T16:43:11;33.20;1.00
5118;DHT22;2578;51.622;7.046;2022-08-03T16:45:37;33.30;1.00
5118;DHT22;2578;51.622;7.046;2022-08-03T16:48:03;33.30;1.00
5118;DHT22;2578;51.622;7.046;2022-08-03T16:50:29;33.30;1.00
5118;DHT22;2578;51.622;7.046;2022-08-03T16:52:55;33.30;1.00
5118;DHT22;2578;51.622;7.046;2022-08-03T16:55:20;33.00;1.00
5118;DHT22;2578;51.622;7.046;2022-08-03T16:57:46;32.90;1.00
5118;DHT22;2578;51.622;7.046;2022-08-03T17:00:12;32.80;1.00
5118;DHT22;2578;51.622;7.046;2022-08-03T17:02:41;33.00;1.00
5118;DHT22;2578;51.622;7.046;2022-08-03T17:05:07;33.00;1.00